McGrath, AK

10:37 PM AKDT on August 29, 2014 (GMT -0800)
McGrath | Change Station
CLOSE
Current Station
Airport
Location: McGrath,
Elevation: 338 ft
Nearby Weather Stations
Active Advisory: Special Statement Active Notice: Record Report

Elev 338 ft 62.95 °N, 155.61 °W | Updated 44 minutes ago

Mostly Cloudy
Mostly Cloudy
47 °F
Feels Like 47 °F
N
6
Wind Variable Wind from WNW

Today
High -- | Low -- °F
--% Chance of Precip.
Yesterday
High -- | Low -- °F
Precip. -- in
6:58 AM 9:40 PM
Waxing Crescent, 19% visible
Pressure 29.77 in
Visibility 10.0 miles
Clouds Mostly Cloudy 6500 ft
Dew Point 36 °F
Humidity 66%
Rainfall 0.00 in
Snow Depth Not available.
UV 0 out of 12
Pollen Not available.
Air Quality Not available.
Flu Activity Not available.
METAR PAMC 300553Z AUTO 29005KT 10SM BKN065 08/02 A2976 RMK SLP081 60000 T00830022 10111 20083 53003 TSNO VIA AUTODIAL

More Conditions Fewer Conditions

Pressure 29.77 in
Visibility 10.0 miles
Clouds Mostly Cloudy 6500 ft
Dew Point 36 °F
Humidity 66%
Rainfall 0.00 in
Snow Depth Not available.
UV 0 out of 12
Pollen Not available.
Air Quality Not available.
Flu Activity Not available.
METAR PAMC 300553Z AUTO 29005KT 10SM BKN065 08/02 A2976 RMK SLP081 60000 T00830022 10111 20083 53003 TSNO VIA AUTODIAL

More Conditions Fewer Conditions

10-Day Weather Forecast

Almanac

Astronomy

Aug. 29, 2014 Rise Set
Actual Time 6:58 AM AKDT 9:40 PM AKDT
Civil Twilight 6:06 AM AKDT 10:31 PM AKDT
Nautical Twilight 4:55 AM AKDT 11:42 PM AKDT
Astronomical Twilight 2:53 AM AKDT 1:57 AM AKDT
Moon 12:27 PM AKDT (8/29) 10:10 PM AKDT (8/29)
Length of Visible Light 16h 24m
Length of Day
14h 41m
Tomorrow will be 6m 8s shorter.
Waxing Crescent, 19% of the Moon is Illuminated
Aug 30
Waxing Crescent
Sep 2
First Quarter
Sep 8
Full
Sep 15
Last Quarter
Sep 24
New

Community

WunderPhotos

Upload Photos

1,748,460 photos uploaded!

Nearby

Snow Depth

Station Depth Elevation
Susitna Valley High 2 in 375 ft
Point Mackenzie 1 in 200 ft
Indian Pass 1 in 2300 ft
Summit Creek 0 in 1400 ft
Turnagain Pass 1 in 1880 ft

Earthquake Activity

City Distance Mag. Time & Date
No recent earthquake activity has been reported nearby.
Minimum magnitude displayed is 2.5.

Coastal Water Temperatures

Place Temperature
No Stations Reporting

Nearby Weather Stations